Time;durP1;ratioP1;P1;durP2;ratioP2;P2;SDS_P1;SDS_P2;PMS_P1;PMS_P2;Temp;Humidity;BMP_temperature;BMP_pressure;BME280_temperature;BME280_humidity;BME280_pressure;Samples;Min_cycle;Max_cycle;Signal;HPM_P1;HPM_P2
2021/08/25 00:00:18;;;;;;;;;;;12.70;1.00;;;;;;5024580;28;19920;-62
2021/08/25 00:02:43;;;;;;;;;;;12.70;1.00;;;;;;5027787;28;19917;-62
2021/08/25 00:05:09;;;;;;;;;;;12.70;1.00;;;;;;5028675;28;20020;-62
2021/08/25 00:07:35;;;;;;;;;;;12.70;1.00;;;;;;5028474;28;19921;-63
2021/08/25 00:10:00;;;;;;;;;;;12.80;1.00;;;;;;5028167;28;20338;-63
2021/08/25 00:12:26;;;;;;;;;;;12.80;1.00;;;;;;5027533;28;19957;-63
2021/08/25 00:14:51;;;;;;;;;;;12.80;1.00;;;;;;5028113;28;19913;-63
2021/08/25 00:17:18;;;;;;;;;;;12.80;1.00;;;;;;5028494;28;20065;-63
2021/08/25 00:19:45;;;;;;;;;;;12.80;1.00;;;;;;5028212;28;19999;-63
2021/08/25 00:22:11;;;;;;;;;;;12.80;1.00;;;;;;5027546;28;20374;-63
2021/08/25 00:24:37;;;;;;;;;;;12.70;1.00;;;;;;5028389;28;19954;-63
2021/08/25 00:27:03;;;;;;;;;;;12.60;1.00;;;;;;5027843;28;19940;-63
2021/08/25 00:29:28;;;;;;;;;;;12.60;1.00;;;;;;5028423;28;19917;-63
2021/08/25 00:31:54;;;;;;;;;;;12.60;1.00;;;;;;5026907;28;19915;-63
2021/08/25 00:34:19;;;;;;;;;;;12.50;1.00;;;;;;5028416;28;20000;-63
2021/08/25 00:36:45;;;;;;;;;;;12.50;1.00;;;;;;5028079;28;19913;-63
2021/08/25 00:39:10;;;;;;;;;;;12.40;1.00;;;;;;5028528;28;19909;-63
2021/08/25 00:41:36;;;;;;;;;;;12.50;1.00;;;;;;5027991;28;19968;-63
2021/08/25 00:44:01;;;;;;;;;;;12.50;1.00;;;;;;5027265;28;19916;-63
2021/08/25 00:46:27;;;;;;;;;;;12.60;1.00;;;;;;5027347;28;19994;-64
2021/08/25 00:48:52;;;;;;;;;;;12.60;1.00;;;;;;5028035;28;20095;-63
2021/08/25 00:51:18;;;;;;;;;;;12.60;1.00;;;;;;5021188;28;19987;-64
2021/08/25 00:53:44;;;;;;;;;;;12.60;1.00;;;;;;5027016;28;19939;-63
2021/08/25 00:56:10;;;;;;;;;;;12.60;1.00;;;;;;5027568;28;19917;-63
2021/08/25 00:58:38;;;;;;;;;;;12.70;1.00;;;;;;5027384;28;20302;-63
2021/08/25 01:01:07;;;;;;;;;;;12.70;1.00;;;;;;5023424;28;19909;-64
2021/08/25 01:03:39;;;;;;;;;;;12.70;1.00;;;;;;5007859;28;20016;-63
2021/08/25 01:06:04;;;;;;;;;;;12.70;1.00;;;;;;5008994;28;19910;-63
2021/08/25 01:08:31;;;;;;;;;;;12.70;1.00;;;;;;5008542;28;20557;-63
2021/08/25 01:11:09;;;;;;;;;;;12.70;1.00;;;;;;5008185;28;19940;-63
2021/08/25 01:13:35;;;;;;;;;;;12.70;1.00;;;;;;5007136;28;19910;-62
2021/08/25 01:16:00;;;;;;;;;;;12.80;1.00;;;;;;5007440;28;19909;-63
2021/08/25 01:18:26;;;;;;;;;;;12.80;1.00;;;;;;5007642;28;19975;-63
2021/08/25 01:20:53;;;;;;;;;;;12.80;1.00;;;;;;5008097;28;20030;-63
2021/08/25 01:23:19;;;;;;;;;;;12.80;1.00;;;;;;5009836;28;19915;-63
2021/08/25 01:25:46;;;;;;;;;;;12.70;1.00;;;;;;5027701;28;19924;-63
2021/08/25 01:28:15;;;;;;;;;;;12.70;1.00;;;;;;5027895;28;20370;-63
2021/08/25 01:30:41;;;;;;;;;;;12.60;1.00;;;;;;5028020;28;20350;-63
2021/08/25 01:33:15;;;;;;;;;;;12.60;1.00;;;;;;5031640;28;19913;-63
2021/08/25 01:35:41;;;;;;;;;;;12.50;1.00;;;;;;5032155;28;20005;-62
2021/08/25 01:38:07;;;;;;;;;;;12.50;1.00;;;;;;5031707;28;20449;-63
2021/08/25 01:40:34;;;;;;;;;;;12.40;1.00;;;;;;5031067;28;19991;-63
2021/08/25 01:43:00;;;;;;;;;;;12.40;1.00;;;;;;5030970;28;19921;-63
2021/08/25 01:45:26;;;;;;;;;;;12.40;1.00;;;;;;5031493;28;19913;-63
2021/08/25 01:47:51;;;;;;;;;;;12.30;1.00;;;;;;5031990;28;19936;-63
2021/08/25 01:50:17;;;;;;;;;;;12.30;1.00;;;;;;5023791;28;19914;-63
2021/08/25 01:52:42;;;;;;;;;;;12.20;1.00;;;;;;5011023;28;19913;-63
2021/08/25 01:55:08;;;;;;;;;;;12.20;1.00;;;;;;5010895;28;19954;-62
2021/08/25 01:57:33;;;;;;;;;;;12.20;1.00;;;;;;5011157;28;19917;-62
2021/08/25 01:59:59;;;;;;;;;;;12.20;1.00;;;;;;5024846;28;19917;-63
2021/08/25 02:02:24;;;;;;;;;;;12.10;1.00;;;;;;5029990;28;19967;-63
2021/08/25 02:04:50;;;;;;;;;;;12.10;1.00;;;;;;5030740;28;19917;-59
2021/08/25 02:07:15;;;;;;;;;;;12.10;1.00;;;;;;5030877;28;19909;-62
2021/08/25 02:09:41;;;;;;;;;;;12.00;1.00;;;;;;5030420;28;19917;-63
2021/08/25 02:12:06;;;;;;;;;;;12.00;1.00;;;;;;5030101;28;19913;-62
2021/08/25 02:14:33;;;;;;;;;;;12.00;1.00;;;;;;5030987;28;19909;-62
2021/08/25 02:16:58;;;;;;;;;;;11.90;1.00;;;;;;5029903;28;19992;-62
2021/08/25 02:19:24;;;;;;;;;;;11.90;1.00;;;;;;5031102;28;19913;-62
2021/08/25 02:21:49;;;;;;;;;;;11.90;1.00;;;;;;5029939;28;19960;-63
2021/08/25 02:24:15;;;;;;;;;;;11.90;1.00;;;;;;5030675;28;19944;-63
2021/08/25 02:26:40;;;;;;;;;;;11.80;1.00;;;;;;5028278;28;19909;-63
2021/08/25 02:29:06;;;;;;;;;;;11.80;1.00;;;;;;5024927;28;19909;-63
2021/08/25 02:31:31;;;;;;;;;;;11.80;1.00;;;;;;5029795;28;20003;-63
2021/08/25 02:33:57;;;;;;;;;;;11.70;1.00;;;;;;5030213;28;19968;-62
2021/08/25 02:36:22;;;;;;;;;;;11.70;1.00;;;;;;5030011;28;19916;-63
2021/08/25 02:38:48;;;;;;;;;;;11.70;1.00;;;;;;5029560;28;19913;-63
2021/08/25 02:41:15;;;;;;;;;;;11.70;1.00;;;;;;5029861;28;19920;-63
2021/08/25 02:43:40;;;;;;;;;;;11.70;1.00;;;;;;5028880;28;20027;-62
2021/08/25 02:46:06;;;;;;;;;;;11.70;1.00;;;;;;5029451;28;20000;-63
2021/08/25 02:48:31;;;;;;;;;;;11.60;1.00;;;;;;5030506;28;20329;-63
2021/08/25 02:50:57;;;;;;;;;;;11.60;1.00;;;;;;5016712;28;19937;-63
2021/08/25 02:53:22;;;;;;;;;;;11.60;1.00;;;;;;5009852;28;19913;-62
2021/08/25 02:55:48;;;;;;;;;;;11.60;1.00;;;;;;5010581;28;19964;-62
2021/08/25 02:58:14;;;;;;;;;;;11.60;1.00;;;;;;5010237;28;20302;-63
2021/08/25 03:00:39;;;;;;;;;;;11.60;1.00;;;;;;5009188;28;19917;-63
2021/08/25 03:03:05;;;;;;;;;;;11.60;1.00;;;;;;5009652;28;20048;-62
2021/08/25 03:05:31;;;;;;;;;;;11.60;1.00;;;;;;5010174;28;20366;-63
2021/08/25 03:07:56;;;;;;;;;;;11.60;1.00;;;;;;5009692;28;20004;-63
2021/08/25 03:10:22;;;;;;;;;;;11.60;1.00;;;;;;5009773;28;19913;-63
2021/08/25 03:12:47;;;;;;;;;;;11.60;1.00;;;;;;5008740;28;19913;-63
2021/08/25 03:15:13;;;;;;;;;;;11.60;1.00;;;;;;5008829;28;20300;-63
2021/08/25 03:17:38;;;;;;;;;;;11.50;1.00;;;;;;5010004;28;20004;-63
2021/08/25 03:20:05;;;;;;;;;;;11.50;1.00;;;;;;5009846;28;20390;-63
2021/08/25 03:22:30;;;;;;;;;;;11.50;1.00;;;;;;5007695;28;20014;-62
2021/08/25 03:24:56;;;;;;;;;;;11.50;1.00;;;;;;5025806;28;19948;-62
2021/08/25 03:27:22;;;;;;;;;;;11.50;1.00;;;;;;5030000;28;19963;-62
2021/08/25 03:29:47;;;;;;;;;;;11.50;1.00;;;;;;5029761;28;19999;-64
2021/08/25 03:32:13;;;;;;;;;;;11.40;1.00;;;;;;5028834;28;19967;-63
2021/08/25 03:34:38;;;;;;;;;;;11.40;1.00;;;;;;5029876;28;20282;-62
2021/08/25 03:37:04;;;;;;;;;;;11.40;1.00;;;;;;5029778;28;19909;-62
2021/08/25 03:39:30;;;;;;;;;;;11.40;1.00;;;;;;5029625;28;19913;-62
2021/08/25 03:41:55;;;;;;;;;;;11.40;1.00;;;;;;5029101;28;19909;-63
2021/08/25 03:44:21;;;;;;;;;;;11.40;1.00;;;;;;5029800;28;19920;-62
2021/08/25 03:46:46;;;;;;;;;;;11.40;1.00;;;;;;5028999;28;20476;-63
2021/08/25 03:49:12;;;;;;;;;;;11.30;1.00;;;;;;5029595;28;19979;-63
2021/08/25 03:51:37;;;;;;;;;;;11.30;1.00;;;;;;5020801;28;19968;-61
2021/08/25 03:54:03;;;;;;;;;;;11.30;1.00;;;;;;5028157;28;20024;-63
2021/08/25 03:56:28;;;;;;;;;;;11.30;1.00;;;;;;5028825;28;19913;-64
2021/08/25 03:58:54;;;;;;;;;;;11.30;1.00;;;;;;5029413;28;19932;-63
2021/08/25 04:01:19;;;;;;;;;;;11.30;1.00;;;;;;5028132;28;19985;-63
2021/08/25 04:03:45;;;;;;;;;;;11.20;1.00;;;;;;5028908;28;19913;-63
2021/08/25 04:06:10;;;;;;;;;;;11.20;1.00;;;;;;5029297;28;19909;-63
2021/08/25 04:08:36;;;;;;;;;;;11.20;1.00;;;;;;5029340;28;19913;-63
2021/08/25 04:11:01;;;;;;;;;;;11.20;1.00;;;;;;5028905;28;19919;-63
2021/08/25 04:13:27;;;;;;;;;;;11.20;1.00;;;;;;5027988;28;19910;-63
2021/08/25 04:15:52;;;;;;;;;;;11.20;1.00;;;;;;5028301;28;19916;-62
2021/08/25 04:18:18;;;;;;;;;;;11.20;1.00;;;;;;5022882;28;19923;-63
2021/08/25 04:20:43;;;;;;;;;;;11.20;1.00;;;;;;5006650;28;20394;-63
2021/08/25 04:23:09;;;;;;;;;;;11.20;1.00;;;;;;5024956;28;19909;-63
2021/08/25 04:25:34;;;;;;;;;;;11.20;1.00;;;;;;5006921;28;19913;-63
2021/08/25 04:28:00;;;;;;;;;;;11.20;1.00;;;;;;5010639;28;19917;-61
2021/08/25 04:30:25;;;;;;;;;;;11.20;1.00;;;;;;5024810;28;20014;-63
2021/08/25 04:32:51;;;;;;;;;;;11.20;1.00;;;;;;5026990;28;19917;-62
2021/08/25 04:35:16;;;;;;;;;;;11.20;1.00;;;;;;5027871;28;20012;-62
2021/08/25 04:37:42;;;;;;;;;;;11.30;1.00;;;;;;5027531;28;19967;-63
2021/08/25 04:40:08;;;;;;;;;;;11.30;1.00;;;;;;5028154;28;19956;-63
2021/08/25 04:42:34;;;;;;;;;;;11.30;1.00;;;;;;5027357;28;20307;-63
2021/08/25 04:44:59;;;;;;;;;;;11.30;1.00;;;;;;5028425;28;19929;-63
2021/08/25 04:47:25;;;;;;;;;;;11.40;1.00;;;;;;5028114;28;19913;-64
2021/08/25 04:49:50;;;;;;;;;;;11.40;1.00;;;;;;5023931;28;19918;-64
2021/08/25 04:52:16;;;;;;;;;;;11.40;1.00;;;;;;5007492;28;20007;-63
2021/08/25 04:54:41;;;;;;;;;;;11.50;1.00;;;;;;5006474;28;19909;-63
2021/08/25 04:57:07;;;;;;;;;;;11.50;1.00;;;;;;5004763;28;19944;-62
2021/08/25 04:59:32;;;;;;;;;;;11.50;1.00;;;;;;5016385;28;19909;-63
2021/08/25 05:01:58;;;;;;;;;;;11.60;1.00;;;;;;5023366;28;19917;-62
2021/08/25 05:04:23;;;;;;;;;;;11.60;1.00;;;;;;5023971;28;19952;-63
2021/08/25 05:06:49;;;;;;;;;;;11.70;1.00;;;;;;5028435;28;19928;-64
2021/08/25 05:09:14;;;;;;;;;;;11.70;1.00;;;;;;5028811;28;20066;-65
2021/08/25 05:11:40;;;;;;;;;;;11.80;1.00;;;;;;5028816;28;20369;-65
2021/08/25 05:14:05;;;;;;;;;;;11.80;1.00;;;;;;5028559;28;19923;-64
2021/08/25 05:16:31;;;;;;;;;;;11.90;1.00;;;;;;5028266;28;19963;-65
2021/08/25 05:18:56;;;;;;;;;;;11.90;1.00;;;;;;5029062;28;19909;-65
2021/08/25 05:21:23;;;;;;;;;;;12.00;1.00;;;;;;5029207;28;20229;-64
2021/08/25 05:23:49;;;;;;;;;;;12.10;1.00;;;;;;5028204;28;20096;-64
2021/08/25 05:26:14;;;;;;;;;;;12.20;1.00;;;;;;5024894;28;19941;-65
2021/08/25 05:28:40;;;;;;;;;;;12.20;1.00;;;;;;5020120;28;19973;-64
2021/08/25 05:31:05;;;;;;;;;;;12.30;1.00;;;;;;5027652;28;20127;-63
2021/08/25 05:33:30;;;;;;;;;;;12.70;1.00;;;;;;5028544;28;19917;-65
2021/08/25 05:35:57;;;;;;;;;;;13.40;1.00;;;;;;5032365;22;19929;-63
2021/08/25 05:38:23;;;;;;;;;;;14.20;1.00;;;;;;5008609;28;20352;-63
2021/08/25 05:40:48;;;;;;;;;;;15.10;1.00;;;;;;5008032;28;19918;-64
2021/08/25 05:43:17;;;;;;;;;;;16.00;1.00;;;;;;5007145;28;19909;-64
2021/08/25 05:45:43;;;;;;;;;;;16.60;1.00;;;;;;5008379;28;19914;-64
2021/08/25 05:48:08;;;;;;;;;;;16.70;1.00;;;;;;5008678;28;19919;-63
2021/08/25 05:50:34;;;;;;;;;;;16.90;99.90;;;;;;4998789;28;19917;-64
2021/08/25 05:52:59;;;;;;;;;;;17.10;99.90;;;;;;4988299;28;19910;-64
2021/08/25 05:55:25;;;;;;;;;;;17.80;1.00;;;;;;4989372;28;19952;-64
2021/08/25 05:57:50;;;;;;;;;;;18.40;99.90;;;;;;4989890;28;20005;-64
2021/08/25 06:00:19;;;;;;;;;;;19.10;1.00;;;;;;5005469;28;19967;-64
2021/08/25 06:02:44;;;;;;;;;;;19.80;1.00;;;;;;5008523;28;19913;-64
2021/08/25 06:05:11;;;;;;;;;;;20.30;1.00;;;;;;5009138;28;20409;-64
2021/08/25 06:07:36;;;;;;;;;;;20.50;1.00;;;;;;5010239;28;19917;-64
2021/08/25 06:10:02;;;;;;;;;;;21.00;1.00;;;;;;5010556;28;19917;-64
2021/08/25 06:12:28;;;;;;;;;;;21.60;1.00;;;;;;5009715;28;19909;-64
2021/08/25 06:14:53;;;;;;;;;;;21.70;99.90;;;;;;5010291;28;19916;-65
2021/08/25 06:17:19;;;;;;;;;;;22.10;99.90;;;;;;5009477;28;19914;-65
2021/08/25 06:19:44;;;;;;;;;;;22.40;99.90;;;;;;5010308;28;19914;-63
2021/08/25 06:22:10;;;;;;;;;;;22.70;99.90;;;;;;5012699;28;19916;-65
2021/08/25 06:24:35;;;;;;;;;;;22.80;99.90;;;;;;5026402;28;20405;-62
2021/08/25 06:27:01;;;;;;;;;;;22.80;99.90;;;;;;5025551;28;19921;-65
2021/08/25 06:29:27;;;;;;;;;;;22.80;99.90;;;;;;5016337;28;20338;-64
2021/08/25 06:31:52;;;;;;;;;;;23.40;99.90;;;;;;5011689;28;20000;-65
2021/08/25 06:34:18;;;;;;;;;;;23.00;99.90;;;;;;5011541;28;19933;-65
2021/08/25 06:36:43;;;;;;;;;;;23.00;99.90;;;;;;5010823;28;19925;-64
2021/08/25 06:39:09;;;;;;;;;;;23.40;99.90;;;;;;5030434;28;20285;-66
2021/08/25 06:41:34;;;;;;;;;;;23.70;99.90;;;;;;5030947;28;19909;-65
2021/08/25 06:44:00;;;;;;;;;;;24.50;99.90;;;;;;5030162;28;20311;-65
2021/08/25 06:46:25;;;;;;;;;;;24.70;99.90;;;;;;5029941;28;19920;-64
2021/08/25 06:48:51;;;;;;;;;;;24.40;99.90;;;;;;5030538;28;19953;-65
2021/08/25 06:51:16;;;;;;;;;;;25.40;99.90;;;;;;5014087;28;19980;-65
2021/08/25 06:53:42;;;;;;;;;;;25.40;99.90;;;;;;5010219;28;20028;-65
2021/08/25 06:56:07;;;;;;;;;;;25.90;99.90;;;;;;5010715;28;19925;-65
2021/08/25 06:58:33;;;;;;;;;;;26.80;99.90;;;;;;5009830;28;20342;-65
2021/08/25 07:00:58;;;;;;;;;;;26.70;99.90;;;;;;5009514;28;19914;-64
2021/08/25 07:03:24;;;;;;;;;;;26.30;99.90;;;;;;5009808;28;19964;-64
2021/08/25 07:05:49;;;;;;;;;;;26.20;99.90;;;;;;5010347;28;19910;-64
2021/08/25 07:08:15;;;;;;;;;;;26.90;99.90;;;;;;5010205;28;19933;-64
2021/08/25 07:10:40;;;;;;;;;;;28.00;99.90;;;;;;5009988;28;19957;-64
2021/08/25 07:13:06;;;;;;;;;;;28.60;99.90;;;;;;5008907;28;19941;-64
2021/08/25 07:15:31;;;;;;;;;;;28.50;99.90;;;;;;5009631;28;20338;-65
2021/08/25 07:17:57;;;;;;;;;;;28.60;99.90;;;;;;5009912;28;19978;-63
2021/08/25 07:20:23;;;;;;;;;;;29.10;99.90;;;;;;5009949;28;19917;-64
2021/08/25 07:22:48;;;;;;;;;;;29.60;99.90;;;;;;5007200;28;19921;-64
2021/08/25 07:25:14;;;;;;;;;;;30.50;99.90;;;;;;5009641;28;19960;-65
2021/08/25 07:27:40;;;;;;;;;;;30.40;99.90;;;;;;4998962;28;19944;-65
2021/08/25 07:30:10;;;;;;;;;;;30.80;99.90;;;;;;5008731;28;19913;-65
2021/08/25 07:32:35;;;;;;;;;;;31.50;99.90;;;;;;5009049;28;19910;-65
2021/08/25 07:35:01;;;;;;;;;;;31.70;99.90;;;;;;5009774;28;20262;-65
2021/08/25 07:37:27;;;;;;;;;;;32.70;99.90;;;;;;5014917;28;19913;-65
2021/08/25 07:39:53;;;;;;;;;;;32.30;99.90;;;;;;5029559;28;19909;-65
2021/08/25 07:42:18;;;;;;;;;;;32.30;99.90;;;;;;5028205;28;19931;-63
2021/08/25 07:44:44;;;;;;;;;;;32.00;99.90;;;;;;5028542;28;20370;-64
2021/08/25 07:47:09;;;;;;;;;;;32.70;99.90;;;;;;5028190;28;19917;-64
2021/08/25 07:49:34;;;;;;;;;;;33.20;99.90;;;;;;5028160;28;19909;-64
2021/08/25 07:52:02;;;;;;;;;;;32.30;99.90;;;;;;5019702;28;19909;-64
2021/08/25 07:54:27;;;;;;;;;;;31.60;99.90;;;;;;5028684;28;19913;-64
2021/08/25 07:56:53;;;;;;;;;;;31.30;99.90;;;;;;5028033;28;20463;-64
2021/08/25 07:59:18;;;;;;;;;;;31.10;99.90;;;;;;5019407;28;19914;-64
2021/08/25 08:01:44;;;;;;;;;;;32.40;99.90;;;;;;5007476;28;19917;-65
2021/08/25 08:04:09;;;;;;;;;;;34.00;99.90;;;;;;5006889;28;19979;-65
2021/08/25 08:06:35;;;;;;;;;;;34.50;99.90;;;;;;5009287;28;19960;-64
2021/08/25 08:09:01;;;;;;;;;;;34.30;99.90;;;;;;5009178;28;19917;-65
2021/08/25 08:11:26;;;;;;;;;;;34.70;99.90;;;;;;5008357;28;20067;-64
2021/08/25 08:13:52;;;;;;;;;;;35.10;99.90;;;;;;5008090;28;20011;-64
2021/08/25 08:16:20;;;;;;;;;;;34.70;99.90;;;;;;5008504;28;19968;-65
2021/08/25 08:19:01;;;;;;;;;;;35.70;99.90;;;;;;5009467;28;20552;-65
2021/08/25 08:21:27;;;;;;;;;;;35.00;99.90;;;;;;5008739;28;19920;-65
2021/08/25 08:23:53;;;;;;;;;;;35.50;99.90;;;;;;5014775;28;19936;-64
2021/08/25 08:26:18;;;;;;;;;;;36.50;99.90;;;;;;5028368;28;19920;-65
2021/08/25 08:28:44;;;;;;;;;;;37.60;99.90;;;;;;5019901;28;19916;-65
2021/08/25 08:31:10;;;;;;;;;;;38.40;99.90;;;;;;5007522;28;19936;-65
2021/08/25 08:33:36;;;;;;;;;;;37.70;99.90;;;;;;5008177;28;19956;-65
2021/08/25 08:36:02;;;;;;;;;;;37.20;99.90;;;;;;5008482;28;19921;-65
2021/08/25 08:38:27;;;;;;;;;;;37.10;99.90;;;;;;5021766;28;19936;-65
2021/08/25 08:40:53;;;;;;;;;;;37.40;99.90;;;;;;5027833;28;19968;-65
2021/08/25 08:43:18;;;;;;;;;;;38.40;99.90;;;;;;5026716;28;20013;-66
2021/08/25 08:45:44;;;;;;;;;;;38.30;99.90;;;;;;5025990;28;20288;-66
2021/08/25 08:48:14;;;;;;;;;;;36.50;97.10;;;;;;5028609;28;19920;-65
2021/08/25 08:50:40;;;;;;;;;;;36.60;99.90;;;;;;5026439;28;19920;-66
2021/08/25 08:53:06;;;;;;;;;;;37.80;94.70;;;;;;5021502;28;19909;-67
2021/08/25 08:55:32;;;;;;;;;;;37.60;92.40;;;;;;5027487;28;19913;-67
2021/08/25 08:57:57;;;;;;;;;;;38.00;91.10;;;;;;5027237;28;19913;-68
2021/08/25 09:00:22;;;;;;;;;;;38.50;88.60;;;;;;5009337;28;19936;-68
2021/08/25 09:02:48;;;;;;;;;;;39.20;85.00;;;;;;5007785;28;19999;-65
2021/08/25 09:05:21;;;;;;;;;;;37.90;79.50;;;;;;5008775;28;20247;-66
2021/08/25 09:07:58;;;;;;;;;;;35.70;72.60;;;;;;5009038;28;19910;-66
2021/08/25 09:10:23;;;;;;;;;;;35.60;73.30;;;;;;5008579;28;20011;-66
2021/08/25 09:12:53;;;;;;;;;;;36.30;73.40;;;;;;5007746;28;19960;-68
2021/08/25 09:15:20;;;;;;;;;;;37.10;71.60;;;;;;5008167;28;19975;-67
2021/08/25 09:17:45;;;;;;;;;;;36.70;71.30;;;;;;5007977;28;20005;-66
2021/08/25 09:20:11;;;;;;;;;;;34.40;67.50;;;;;;5008344;28;20392;-68
2021/08/25 09:22:37;;;;;;;;;;;34.30;66.10;;;;;;5007615;28;19910;-68
2021/08/25 09:25:03;;;;;;;;;;;34.20;68.10;;;;;;5023770;28;20429;-66
2021/08/25 09:27:28;;;;;;;;;;;32.80;68.50;;;;;;5027100;28;20339;-66
2021/08/25 09:29:56;;;;;;;;;;;34.00;71.40;;;;;;5009166;28;20451;-68
2021/08/25 09:32:26;;;;;;;;;;;34.80;69.60;;;;;;5006830;28;19929;-67
2021/08/25 09:34:58;;;;;;;;;;;35.30;69.60;;;;;;5008109;28;19921;-66
2021/08/25 09:37:24;;;;;;;;;;;;;;;;;;5012842;28;19909;-66
2021/08/25 09:39:55;;;;;;;;;;;35.80;52.80;;;;;;5027879;28;19979;-66
2021/08/25 09:42:21;;;;;;;;;;;33.80;63.00;;;;;;5027086;28;19963;-68
2021/08/25 09:44:59;;;;;;;;;;;34.60;63.90;;;;;;5027542;28;19971;-63
2021/08/25 09:47:44;;;;;;;;;;;36.40;62.90;;;;;;5027812;28;19909;-66
2021/08/25 09:50:09;;;;;;;;;;;36.70;61.00;;;;;;4999677;28;19922;-67
2021/08/25 09:52:35;;;;;;;;;;;37.20;58.10;;;;;;4999553;28;19925;-66
2021/08/25 09:55:00;;;;;;;;;;;36.50;54.80;;;;;;5000288;28;20008;-67
2021/08/25 09:57:39;;;;;;;;;;;35.70;52.90;;;;;;4999566;28;20081;-67
2021/08/25 10:00:06;;;;;;;;;;;35.80;57.90;;;;;;5005823;28;19945;-67
2021/08/25 10:02:31;;;;;;;;;;;36.10;50.80;;;;;;4999360;28;19918;-67
2021/08/25 10:04:57;;;;;;;;;;;35.50;49.10;;;;;;4999643;28;19924;-67
2021/08/25 10:07:22;;;;;;;;;;;34.90;51.50;;;;;;4999951;28;20547;-67
2021/08/25 10:09:48;;;;;;;;;;;34.20;47.80;;;;;;4995994;28;19924;-68
2021/08/25 10:12:13;;;;;;;;;;;34.60;47.20;;;;;;4990649;28;19913;-67
2021/08/25 10:14:39;;;;;;;;;;;34.80;46.60;;;;;;4991719;28;19960;-67
2021/08/25 10:17:04;;;;;;;;;;;35.50;46.60;;;;;;4992027;28;20420;-67
2021/08/25 10:19:40;;;;;;;;;;;36.10;45.00;;;;;;4991735;28;19936;-67
2021/08/25 10:22:14;;;;;;;;;;;35.40;42.90;;;;;;4990920;28;19910;-67
2021/08/25 10:24:55;;;;;;;;;;;33.30;40.30;;;;;;5018009;28;19915;-67
2021/08/25 10:27:21;;;;;;;;;;;32.20;39.20;;;;;;5015429;28;19956;-67
2021/08/25 10:30:02;;;;;;;;;;;31.50;40.10;;;;;;5012796;28;19971;-67
2021/08/25 10:32:28;;;;;;;;;;;31.00;40.50;;;;;;5010388;28;19921;-67
2021/08/25 10:35:12;;;;;;;;;;;30.30;41.60;;;;;;5010643;28;19979;-67
2021/08/25 10:37:40;;;;;;;;;;;30.30;43.50;;;;;;5007293;28;20011;-67
2021/08/25 10:40:06;;;;;;;;;;;30.30;46.20;;;;;;5029643;28;20382;-67
2021/08/25 10:42:41;;;;;;;;;;;30.60;47.00;;;;;;5012539;28;19921;-67
2021/08/25 10:45:07;;;;;;;;;;;30.40;46.90;;;;;;5010143;28;19964;-67
2021/08/25 10:47:51;;;;;;;;;;;30.10;47.60;;;;;;5010855;28;19917;-67
2021/08/25 10:50:16;;;;;;;;;;;30.80;48.30;;;;;;5010440;28;19917;-67
2021/08/25 10:52:42;;;;;;;;;;;31.80;48.50;;;;;;5010551;28;19909;-67
2021/08/25 10:55:07;;;;;;;;;;;32.30;48.20;;;;;;5003958;28;20390;-67
2021/08/25 10:57:33;;;;;;;;;;;31.80;46.40;;;;;;5010851;28;19916;-67
2021/08/25 11:00:08;;;;;;;;;;;31.20;46.90;;;;;;5010073;28;19910;-67
2021/08/25 11:02:40;;;;;;;;;;;30.90;46.60;;;;;;5009935;28;19917;-67
2021/08/25 11:05:06;;;;;;;;;;;30.50;59.70;;;;;;5010912;28;19921;-67
2021/08/25 11:07:40;;;;;;;;;;;30.10;47.70;;;;;;5010710;28;19964;-67
2021/08/25 11:10:05;;;;;;;;;;;30.20;48.70;;;;;;5010180;28;19914;-67
2021/08/25 11:12:32;;;;;;;;;;;30.40;50.40;;;;;;5010262;28;19986;-67
2021/08/25 11:14:57;;;;;;;;;;;30.40;50.20;;;;;;5010451;28;20315;-67
2021/08/25 11:17:32;;;;;;;;;;;29.90;49.90;;;;;;5009733;28;20012;-67
2021/08/25 11:20:02;;;;;;;;;;;29.80;50.70;;;;;;5010652;28;20092;-67
2021/08/25 11:22:32;;;;;;;;;;;28.90;50.10;;;;;;5010159;28;20007;-67
2021/08/25 11:25:13;;;;;;;;;;;27.80;50.30;;;;;;5026254;28;20412;-67
2021/08/25 11:27:46;;;;;;;;;;;27.30;52.20;;;;;;5030534;28;19996;-67
2021/08/25 11:30:12;;;;;;;;;;;27.70;55.80;;;;;;4990283;28;20024;-67
2021/08/25 11:32:56;;;;;;;;;;;28.30;57.90;;;;;;4990317;28;19913;-67
2021/08/25 11:35:26;;;;;;;;;;;28.50;57.80;;;;;;4990314;28;19972;-67
2021/08/25 11:37:53;;;;;;;;;;;29.10;59.00;;;;;;5007567;28;20060;-67
2021/08/25 11:40:21;;;;;;;;;;;28.90;58.20;;;;;;5029530;28;20342;-67
2021/08/25 11:42:46;;;;;;;;;;;28.70;58.50;;;;;;5029334;28;19913;-67
2021/08/25 11:45:16;;;;;;;;;;;28.70;59.50;;;;;;5029300;28;20354;-67
2021/08/25 11:47:54;;;;;;;;;;;28.80;59.90;;;;;;5029427;28;19913;-67
2021/08/25 11:50:22;;;;;;;;;;;29.00;60.60;;;;;;5021609;28;19914;-67
2021/08/25 11:52:48;;;;;;;;;;;29.00;61.20;;;;;;5017046;28;19960;-67
2021/08/25 11:55:13;;;;;;;;;;;29.20;63.20;;;;;;5010067;28;19913;-67
2021/08/25 11:57:41;;;;;;;;;;;29.20;63.40;;;;;;5027988;28;19967;-67
2021/08/25 12:00:06;;;;;;;;;;;29.40;63.70;;;;;;5013994;28;19910;-67
2021/08/25 12:02:48;;;;;;;;;;;29.60;64.00;;;;;;5008773;28;19914;-67
2021/08/25 12:05:17;;;;;;;;;;;29.40;63.70;;;;;;5010096;28;20301;-67
2021/08/25 12:07:56;;;;;;;;;;;28.20;61.00;;;;;;5009808;28;19987;-67
2021/08/25 12:10:23;;;;;;;;;;;26.60;59.70;;;;;;5009940;28;19944;-67
2021/08/25 12:12:48;;;;;;;;;;;26.30;64.30;;;;;;5009243;28;19999;-67
2021/08/25 12:15:14;;;;;;;;;;;26.00;66.20;;;;;;5009354;28;20365;-67
2021/08/25 12:17:56;;;;;;;;;;;25.70;67.60;;;;;;5009964;28;19999;-67
2021/08/25 12:20:22;;;;;;;;;;;25.60;69.70;;;;;;5009780;28;19953;-67
2021/08/25 12:22:47;;;;;;;;;;;25.00;69.30;;;;;;5010524;28;19940;-67
2021/08/25 12:25:33;;;;;;;;;;;24.70;70.80;;;;;;5010975;28;19999;-66
2021/08/25 12:27:58;;;;;;;;;;;24.40;72.80;;;;;;5007346;28;19978;-66
2021/08/25 12:30:24;;;;;;;;;;;24.60;76.70;;;;;;4989525;28;20315;-67
2021/08/25 12:32:49;;;;;;;;;;;24.90;79.60;;;;;;4989950;28;19914;-67
2021/08/25 12:35:22;;;;;;;;;;;25.10;80.30;;;;;;4992268;28;20024;-68
2021/08/25 12:37:47;;;;;;;;;;;25.20;81.10;;;;;;4998496;28;19910;-67
2021/08/25 12:40:13;;;;;;;;;;;25.40;82.30;;;;;;5010980;28;20382;-68
2021/08/25 12:42:39;;;;;;;;;;;25.50;82.90;;;;;;5008856;28;19914;-67
2021/08/25 12:45:04;;;;;;;;;;;25.50;82.70;;;;;;5009256;28;19914;-67
2021/08/25 12:47:30;;;;;;;;;;;25.80;86.10;;;;;;5009459;28;19951;-67
2021/08/25 12:49:55;;;;;;;;;;;25.70;84.90;;;;;;5005437;28;19943;-67
2021/08/25 12:52:21;;;;;;;;;;;25.10;83.80;;;;;;4989377;28;19914;-67
2021/08/25 12:54:46;;;;;;;;;;;24.60;83.50;;;;;;4989591;28;20339;-67
2021/08/25 12:57:12;;;;;;;;;;;24.10;83.30;;;;;;4989654;28;19917;-67
2021/08/25 12:59:37;;;;;;;;;;;23.80;83.70;;;;;;5000717;28;20004;-67
2021/08/25 13:02:03;;;;;;;;;;;23.70;86.30;;;;;;5008096;28;19924;-67
2021/08/25 13:04:28;;;;;;;;;;;23.40;87.00;;;;;;5008860;28;19910;-67
2021/08/25 13:06:54;;;;;;;;;;;23.20;88.00;;;;;;5009075;28;19921;-67
2021/08/25 13:09:19;;;;;;;;;;;22.80;88.40;;;;;;5009320;28;20266;-67
2021/08/25 13:11:45;;;;;;;;;;;22.30;88.70;;;;;;5008610;28;19984;-66
2021/08/25 13:14:10;;;;;;;;;;;22.30;90.80;;;;;;5008911;28;19987;-66
2021/08/25 13:16:36;;;;;;;;;;;22.20;91.90;;;;;;5009337;28;19920;-67
2021/08/25 13:19:01;;;;;;;;;;;22.20;99.90;;;;;;5009984;28;19921;-66
2021/08/25 13:21:27;;;;;;;;;;;22.20;93.90;;;;;;5007683;28;19910;-67
2021/08/25 13:23:52;;;;;;;;;;;22.30;95.30;;;;;;5009109;28;20787;-66
2021/08/25 13:26:19;;;;;;;;;;;22.40;96.20;;;;;;5018159;28;20342;-66
2021/08/25 13:28:44;;;;;;;;;;;22.20;96.20;;;;;;5021784;28;19910;-66
2021/08/25 13:31:10;;;;;;;;;;;22.20;96.80;;;;;;5012630;28;19920;-67
2021/08/25 13:33:38;;;;;;;;;;;21.80;96.30;;;;;;5013221;28;20282;-66
2021/08/25 13:36:05;;;;;;;;;;;21.50;96.20;;;;;;5011728;28;20004;-67
2021/08/25 13:38:30;;;;;;;;;;;21.20;96.40;;;;;;5013492;28;20278;-67
2021/08/25 13:40:57;;;;;;;;;;;20.90;96.60;;;;;;5012951;28;20015;-67
2021/08/25 13:43:23;;;;;;;;;;;20.80;97.30;;;;;;5011806;28;19978;-68
2021/08/25 13:45:48;;;;;;;;;;;20.80;98.20;;;;;;5012077;28;19993;-68
2021/08/25 13:48:14;;;;;;;;;;;20.70;98.80;;;;;;5012794;28;20016;-68
2021/08/25 13:50:39;;;;;;;;;;;20.80;99.90;;;;;;5012404;28;19914;-68
2021/08/25 13:53:05;;;;;;;;;;;20.90;99.90;;;;;;5011929;28;19963;-67
2021/08/25 13:55:30;;;;;;;;;;;21.20;99.90;;;;;;5012160;28;20364;-68
2021/08/25 13:57:56;;;;;;;;;;;21.10;99.90;;;;;;5012152;28;20413;-67
2021/08/25 14:00:21;;;;;;;;;;;21.10;99.90;;;;;;5028907;28;19967;-67
2021/08/25 14:02:49;;;;;;;;;;;21.20;99.90;;;;;;5031935;28;20373;-68
2021/08/25 14:05:15;;;;;;;;;;;21.40;99.90;;;;;;5032141;28;19913;-67
2021/08/25 14:07:40;;;;;;;;;;;21.40;99.90;;;;;;5032718;28;19916;-66
2021/08/25 14:10:06;;;;;;;;;;;21.70;99.90;;;;;;5032702;28;19920;-66
2021/08/25 14:12:32;;;;;;;;;;;21.60;99.90;;;;;;5031102;28;19910;-69
2021/08/25 14:14:58;;;;;;;;;;;21.50;99.90;;;;;;5018963;28;19937;-68
2021/08/25 14:17:24;;;;;;;;;;;21.10;99.90;;;;;;5010982;28;19913;-68
2021/08/25 14:19:49;;;;;;;;;;;20.90;99.90;;;;;;5011592;28;19980;-68